IPA weather

Ipota Airport
Ipota, Tafea, Vanuatu

Public forecast

Using degrees Celsius for public forecast. Weather courtesy of forecast.io.

METAR (pilot weather report)

Closest report is Tanna Airport, 36.1 nm (66.9 km) S. Retrieved 2019/06/25 12:00 UTC (1 hour ago):

NVVW 251200Z 09010KT 9999 BKN025 25/21 Q1016

TAF (pilot weather forecast)

Closest forecast is Tanna Airport, 36.1 nm (66.9 km) S. Retrieved 2019/06/25 12:16 UTC (47 minutes ago):

TAF NVVW 251000Z 2512/2612 09015KT 9999 SCT020 BKN050 INTER 2512/2517 8000 SHRA BKN018 OVC040